createdAt,value
2022-08-31T00:00:05.613Z,100156.44
2022-08-31T00:05:10.781Z,100146.09
2022-08-31T00:10:15.247Z,100142.22
2022-08-31T00:15:22.043Z,100146.97
2022-08-31T00:20:33.251Z,100144.84
2022-08-31T00:25:39.767Z,100145.50
2022-08-31T00:30:43.949Z,100146.41
2022-08-31T00:35:46.944Z,100149.81
2022-08-31T00:40:49.863Z,100157.09
2022-08-31T00:45:52.842Z,100146.91
2022-08-31T00:50:57.449Z,100154.56
2022-08-31T00:56:00.894Z,100150.06
2022-08-31T01:01:08.263Z,100149.22
2022-08-31T01:06:11.753Z,100149.34
2022-08-31T01:11:16.338Z,100160.38
2022-08-31T01:16:53.554Z,100166.34
2022-08-31T01:22:07.350Z,100168.44
2022-08-31T01:27:12.019Z,100168.50
2022-08-31T01:32:14.996Z,100169.56
2022-08-31T01:37:17.975Z,100166.41
2022-08-31T01:42:20.907Z,100164.28
2022-08-31T01:47:23.693Z,100155.94
2022-08-31T01:52:28.636Z,100153.56
2022-08-31T01:57:33.975Z,100159.31
2022-08-31T02:02:37.880Z,100157.50
2022-08-31T02:07:41.957Z,100166.88
2022-08-31T02:12:45.008Z,100149.97
2022-08-31T02:17:49.335Z,100154.88
2022-08-31T02:22:55.626Z,100154.53
2022-08-31T02:27:58.896Z,100155.56
2022-08-31T02:33:01.821Z,100145.16
2022-08-31T02:38:06.879Z,100150.56
2022-08-31T02:43:14.214Z,100159.66
2022-08-31T02:48:27.433Z,100160.94
2022-08-31T02:53:30.429Z,100158.09
2022-08-31T02:58:38.436Z,100163.31
2022-08-31T03:03:41.314Z,100158.56
2022-08-31T03:08:50.680Z,100157.81
2022-08-31T03:13:58.289Z,100163.25
2022-08-31T03:19:01.809Z,100169.91
2022-08-31T03:24:05.256Z,100169.31
2022-08-31T03:29:08.055Z,100171.00
2022-08-31T03:34:10.978Z,100168.34
2022-08-31T03:39:18.786Z,100161.19
2022-08-31T03:44:23.551Z,100161.63
2022-08-31T03:49:27.108Z,100159.75
2022-08-31T03:54:30.198Z,100154.19
2022-08-31T03:59:33.602Z,100159.59
2022-08-31T04:04:36.466Z,100168.94
2022-08-31T04:09:39.397Z,100166.47
2022-08-31T04:14:42.818Z,100172.25
2022-08-31T04:19:45.674Z,100185.09
2022-08-31T04:24:48.520Z,100180.56
2022-08-31T04:29:51.240Z,100179.56
2022-08-31T04:34:56.411Z,100178.09
2022-08-31T04:40:01.433Z,100182.63
2022-08-31T04:45:05.391Z,100177.06
2022-08-31T04:50:13.922Z,100172.69
2022-08-31T04:55:17.613Z,100179.75
2022-08-31T05:00:22.129Z,100185.53
2022-08-31T05:05:25.090Z,100187.38
2022-08-31T05:10:27.873Z,100181.75
2022-08-31T05:15:30.850Z,100183.16
2022-08-31T05:20:33.844Z,100196.56
2022-08-31T05:25:40.580Z,100199.84
2022-08-31T05:30:47.625Z,100203.06
2022-08-31T05:35:50.793Z,100201.56
2022-08-31T05:40:56.154Z,100199.25
2022-08-31T05:45:59.700Z,100209.91
2022-08-31T05:51:09.622Z,100207.75
2022-08-31T05:56:23.456Z,100201.84
2022-08-31T06:01:30.567Z,100209.19
2022-08-31T06:06:34.588Z,100199.94
2022-08-31T06:11:42.314Z,100209.69
2022-08-31T06:16:45.851Z,100212.59
2022-08-31T06:21:50.271Z,100207.22
2022-08-31T06:27:00.142Z,100207.19
2022-08-31T06:32:08.094Z,100205.38
2022-08-31T06:37:18.938Z,100212.50
2022-08-31T06:42:21.963Z,100211.28
2022-08-31T06:47:26.130Z,100203.25
2022-08-31T06:52:28.983Z,100207.16
2022-08-31T06:57:31.972Z,100205.88
2022-08-31T07:02:39.214Z,100211.56
2022-08-31T07:07:41.949Z,100205.69
2022-08-31T07:12:44.828Z,100215.50
2022-08-31T07:17:49.832Z,100213.41
2022-08-31T07:22:52.677Z,100214.63
2022-08-31T07:27:55.688Z,100206.63
2022-08-31T07:32:58.518Z,100209.66
2022-08-31T07:38:19.711Z,100218.88
2022-08-31T07:43:22.539Z,100211.06
2022-08-31T07:48:26.212Z,100201.50
2022-08-31T07:53:28.965Z,100197.16
2022-08-31T07:58:32.359Z,100194.56
2022-08-31T08:03:35.301Z,100202.38
2022-08-31T08:08:38.136Z,100199.50
2022-08-31T08:13:40.975Z,100185.03
2022-08-31T08:18:44.094Z,100187.47
2022-08-31T08:23:46.911Z,100182.72
2022-08-31T08:28:50.439Z,100181.78
2022-08-31T08:33:53.220Z,100184.75
2022-08-31T08:38:57.402Z,100176.78
2022-08-31T08:44:05.115Z,100182.44
2022-08-31T08:49:28.518Z,100187.69
2022-08-31T08:54:45.403Z,100172.00
2022-08-31T08:59:51.093Z,100163.16
2022-08-31T09:05:26.402Z,100157.31
2022-08-31T09:10:42.167Z,100152.50
2022-08-31T09:15:52.829Z,100141.13
2022-08-31T09:21:22.104Z,100143.91
2022-08-31T09:26:29.867Z,100133.06
2022-08-31T09:31:39.757Z,100119.75
2022-08-31T09:36:42.752Z,100121.69
2022-08-31T09:41:47.128Z,100112.47
2022-08-31T09:46:56.804Z,100111.91
2022-08-31T09:52:46.301Z,100102.09
2022-08-31T09:57:59.183Z,100101.03
2022-08-31T10:03:19.350Z,100101.53
2022-08-31T10:08:38.619Z,100089.50
2022-08-31T10:13:58.810Z,100090.31
2022-08-31T10:19:32.867Z,100086.00
2022-08-31T10:25:04.339Z,100079.13
2022-08-31T10:30:38.886Z,100069.25
2022-08-31T10:36:00.421Z,100054.47
2022-08-31T10:41:28.969Z,100044.63
2022-08-31T10:46:34.739Z,100045.72
2022-08-31T10:52:00.044Z,100041.22
2022-08-31T10:57:40.258Z,100044.13
2022-08-31T11:03:05.010Z,100037.81
2022-08-31T11:08:37.232Z,100036.69
2022-08-31T11:14:04.291Z,100025.31
2022-08-31T11:19:15.923Z,100018.69
2022-08-31T11:24:56.150Z,100019.03
2022-08-31T11:30:24.566Z,100018.13
2022-08-31T11:36:06.441Z,100001.03
2022-08-31T11:41:11.282Z,100005.16
2022-08-31T11:46:26.496Z,100003.06
2022-08-31T11:51:40.774Z,100009.06
2022-08-31T11:56:47.480Z,100002.91
2022-08-31T12:01:50.461Z,100007.09
2022-08-31T12:06:54.924Z,100002.91
2022-08-31T12:12:24.676Z,99997.22
2022-08-31T12:17:38.384Z,99990.53
2022-08-31T12:23:30.195Z,99993.59
2022-08-31T12:28:49.324Z,99988.13
2022-08-31T12:34:18.085Z,99977.94
2022-08-31T12:39:28.215Z,99961.28
2022-08-31T12:44:41.554Z,99961.34
2022-08-31T12:50:08.217Z,99960.28
2022-08-31T12:55:28.967Z,99957.56
2022-08-31T13:00:39.395Z,99949.38
2022-08-31T13:05:46.633Z,99942.06
2022-08-31T13:10:50.557Z,99937.44
2022-08-31T13:16:05.547Z,99941.78
2022-08-31T13:21:09.539Z,99935.06
2022-08-31T13:26:20.651Z,99940.78
2022-08-31T13:31:35.634Z,99936.25
2022-08-31T13:36:53.857Z,99931.28
2022-08-31T13:42:05.379Z,99934.13
2022-08-31T13:47:25.324Z,99925.69
2022-08-31T13:52:30.984Z,99918.97
2022-08-31T13:57:35.973Z,99924.56
2022-08-31T14:02:39.579Z,99923.63
2022-08-31T14:07:44.090Z,99921.00
2022-08-31T14:12:50.563Z,99928.03
2022-08-31T14:23:25.735Z,99925.03
2022-08-31T14:28:40.878Z,99915.00
2022-08-31T14:33:44.460Z,99909.19
2022-08-31T14:38:48.400Z,99909.16
2022-08-31T14:43:51.253Z,99908.00
2022-08-31T14:48:59.265Z,99909.72
2022-08-31T14:54:02.223Z,99897.53
2022-08-31T14:59:12.679Z,99900.28
2022-08-31T15:04:20.696Z,99889.34
2022-08-31T15:09:24.556Z,99899.59
2022-08-31T15:14:31.235Z,99897.09
2022-08-31T15:19:35.277Z,99895.56
2022-08-31T15:24:45.129Z,99895.03
2022-08-31T15:29:51.897Z,99890.78
2022-08-31T15:34:58.213Z,99889.84
2022-08-31T15:40:04.517Z,99891.72
2022-08-31T15:45:09.036Z,99887.03
2022-08-31T15:50:12.109Z,99883.19
2022-08-31T15:55:21.633Z,99885.53
2022-08-31T16:00:29.068Z,99885.97
2022-08-31T16:05:43.638Z,99892.00
2022-08-31T16:10:48.157Z,99900.81
2022-08-31T16:15:52.449Z,99901.97
2022-08-31T16:20:56.253Z,99897.16
2022-08-31T16:26:00.649Z,99888.28
2022-08-31T16:31:03.713Z,99892.34
2022-08-31T16:36:07.088Z,99903.31
2022-08-31T16:41:11.156Z,99896.00
2022-08-31T16:46:39.595Z,99889.22
2022-08-31T16:51:39.245Z,99893.88
2022-08-31T16:56:43.440Z,99896.63
2022-08-31T17:01:58.093Z,99904.50
2022-08-31T17:07:01.590Z,99906.41
2022-08-31T17:12:08.357Z,99911.91
2022-08-31T17:17:18.221Z,99913.22
2022-08-31T17:22:31.601Z,99911.88
2022-08-31T17:27:35.786Z,99915.38
2022-08-31T17:32:45.099Z,99915.91
2022-08-31T17:37:50.072Z,99918.03
2022-08-31T17:42:57.924Z,99925.63
2022-08-31T17:48:02.960Z,99934.81
2022-08-31T17:53:06.635Z,99933.13
2022-08-31T17:58:09.581Z,99946.06
2022-08-31T18:03:12.686Z,99950.34
2022-08-31T18:08:15.925Z,99955.41
2022-08-31T18:13:24.274Z,99951.03
2022-08-31T18:18:27.345Z,99953.38
2022-08-31T18:23:30.813Z,99967.69
2022-08-31T18:28:33.654Z,99972.84
2022-08-31T18:33:37.882Z,99981.44
2022-08-31T18:38:40.791Z,99991.97
2022-08-31T18:44:01.929Z,99988.38
2022-08-31T18:49:12.626Z,99988.88
2022-08-31T18:54:16.612Z,100005.06
2022-08-31T18:59:20.568Z,100011.81
2022-08-31T19:04:23.456Z,100015.00
2022-08-31T19:09:26.433Z,100033.63
2022-08-31T19:14:34.374Z,100028.56
2022-08-31T19:19:37.940Z,100018.19
2022-08-31T19:24:41.043Z,100025.09
2022-08-31T19:29:46.517Z,100027.50
2022-08-31T19:34:49.694Z,100020.38
2022-08-31T19:39:53.024Z,100018.88
2022-08-31T19:45:22.719Z,100020.88
2022-08-31T19:50:19.728Z,100035.34
2022-08-31T19:55:22.636Z,100039.53
2022-08-31T20:00:25.591Z,100039.97
2022-08-31T20:05:28.580Z,100032.31
2022-08-31T20:10:31.442Z,100043.91
2022-08-31T20:15:42.040Z,100051.91
2022-08-31T20:20:48.546Z,100057.50
2022-08-31T20:25:53.304Z,100068.56
2022-08-31T20:30:59.289Z,100069.22
2022-08-31T20:36:22.711Z,100062.56
2022-08-31T20:41:29.997Z,100050.03
2022-08-31T20:46:51.204Z,100048.28
2022-08-31T20:51:56.383Z,100047.63
2022-08-31T20:57:02.189Z,100058.25
2022-08-31T21:02:07.695Z,100058.41
2022-08-31T21:07:12.594Z,100057.28
2022-08-31T21:12:18.145Z,100059.06
2022-08-31T21:17:22.654Z,100057.53
2022-08-31T21:22:27.713Z,100064.25
2022-08-31T21:27:31.186Z,100060.38
2022-08-31T21:32:34.397Z,100072.00
2022-08-31T21:37:37.819Z,100060.16
2022-08-31T21:42:40.728Z,100060.97
2022-08-31T21:47:43.542Z,100058.25
2022-08-31T21:52:46.445Z,100064.13
2022-08-31T21:57:49.463Z,100067.00
2022-08-31T22:02:54.869Z,100075.09
2022-08-31T22:07:57.934Z,100060.66
2022-08-31T22:13:01.121Z,100071.34
2022-08-31T22:18:46.135Z,100069.63
2022-08-31T22:23:32.476Z,100070.00
2022-08-31T22:28:35.363Z,100069.53
2022-08-31T22:33:39.522Z,100071.91
2022-08-31T22:38:51.436Z,100061.81
2022-08-31T22:43:54.297Z,100065.00
2022-08-31T22:48:57.969Z,100069.13
2022-08-31T22:54:00.868Z,100070.72
2022-08-31T22:59:27.733Z,100082.00
2022-08-31T23:04:33.834Z,100082.22
2022-08-31T23:09:36.688Z,100097.44
2022-08-31T23:14:42.175Z,100097.72
2022-08-31T23:19:46.733Z,100106.66
2022-08-31T23:24:51.817Z,100112.34
2022-08-31T23:29:58.128Z,100115.06
2022-08-31T23:35:01.568Z,100111.69
2022-08-31T23:40:06.282Z,100135.47
2022-08-31T23:45:10.207Z,100125.13
2022-08-31T23:50:14.803Z,100139.56
2022-08-31T23:55:19.163Z,100135.88
